Time,TemperatureF,DewpointF,PressureIn,WindDirection,WindDirectionDegrees,WindSpeedMPH,WindSpeedGustMPH,Humidity,HourlyPrecipIn,Conditions,Clouds,dailyrainin,SoftwareType,DateUTC
2013-01-10 00:01:00,42.0,38.0,30.10,WSW,246,1.0,1.0,87,-99.99,,,-99.99,,2013-01-10 08:01:00,
2013-01-10 00:11:00,42.0,38.0,30.10,WSW,246,1.0,1.0,87,-99.99,,,-99.99,,2013-01-10 08:11:00,
2013-01-10 00:21:00,42.0,38.0,30.10,WSW,250,1.0,1.0,87,-99.99,,,-99.99,,2013-01-10 08:21:00,
2013-01-10 00:32:00,42.0,39.0,30.10,NNW,337,0.0,2.0,88,-99.99,,,-99.99,,2013-01-10 08:32:00,
2013-01-10 00:42:00,42.0,39.0,30.10,NNW,337,0.0,2.0,88,-99.99,,,-99.99,,2013-01-10 08:42:00,
2013-01-10 00:52:00,42.0,39.0,30.10,NNW,337,0.0,1.0,88,-99.99,,,-99.99,,2013-01-10 08:52:00,
2013-01-10 01:02:00,42.0,39.0,30.10,NNW,337,0.0,1.0,89,-99.99,,,-99.99,,2013-01-10 09:02:00,
2013-01-10 01:12:00,42.0,39.0,30.10,NNW,337,0.0,1.0,89,-99.99,,,-99.99,,2013-01-10 09:12:00,
2013-01-10 01:22:00,41.0,38.0,30.09,NNW,337,0.0,0.0,89,-99.99,,,-99.99,,2013-01-10 09:22:00,
2013-01-10 01:32:00,41.0,38.0,30.10,NNW,339,0.0,1.0,89,-99.99,,,-99.99,,2013-01-10 09:32:00,
2013-01-10 01:42:00,41.0,38.0,30.10,NNW,339,0.0,1.0,89,-99.99,,,-99.99,,2013-01-10 09:42:00,
2013-01-10 01:52:00,41.0,38.0,30.10,NNW,342,0.0,1.0,89,-99.99,,,-99.99,,2013-01-10 09:52:00,
2013-01-10 02:02:00,40.0,37.0,30.10,NNW,342,0.0,0.0,90,-99.99,,,-99.99,,2013-01-10 10:02:00,
2013-01-10 02:11:00,40.0,37.0,30.10,NNW,342,0.0,0.0,90,-99.99,,,-99.99,,2013-01-10 10:11:00,
2013-01-10 02:22:00,40.0,37.0,30.10,NNW,344,0.0,1.0,90,-99.99,,,-99.99,,2013-01-10 10:22:00,
2013-01-10 02:32:00,40.0,37.0,30.10,North,353,1.0,2.0,90,-99.99,,,-99.99,,2013-01-10 10:32:00,
2013-01-10 02:42:00,40.0,37.0,30.10,North,353,1.0,2.0,90,-99.99,,,-99.99,,2013-01-10 10:42:00,
2013-01-10 02:52:00,40.0,37.0,30.10,North,0,0.0,2.0,90,-99.99,,,-99.99,,2013-01-10 10:52:00,
2013-01-10 03:02:00,40.0,37.0,30.10,North,0,1.0,1.0,90,-99.99,,,-99.99,,2013-01-10 11:02:00,
2013-01-10 03:12:00,40.0,37.0,30.10,North,0,1.0,1.0,90,-99.99,,,-99.99,,2013-01-10 11:12:00,
2013-01-10 03:22:00,40.0,37.0,30.10,North,0,0.0,1.0,90,-99.99,,,-99.99,,2013-01-10 11:22:00,
2013-01-10 03:32:00,40.0,37.0,30.10,North,0,0.0,1.0,90,-99.99,,,-99.99,,2013-01-10 11:32:00,
2013-01-10 03:42:00,40.0,37.0,30.10,North,0,0.0,1.0,90,-99.99,,,-99.99,,2013-01-10 11:42:00,
2013-01-10 03:52:00,40.0,37.0,30.10,North,0,0.0,2.0,90,-99.99,,,-99.99,,2013-01-10 11:52:00,
2013-01-10 04:02:00,39.0,36.0,30.10,North,0,0.0,1.0,90,-99.99,,,-99.99,,2013-01-10 12:02:00,
2013-01-10 04:11:00,39.0,36.0,30.10,North,0,0.0,1.0,90,-99.99,,,-99.99,,2013-01-10 12:11:00,
2013-01-10 04:22:00,39.0,36.0,30.10,North,356,2.0,3.0,90,-99.99,,,-99.99,,2013-01-10 12:22:00,
2013-01-10 04:32:00,39.0,37.0,30.09,North,350,0.0,1.0,91,-99.99,,,-99.99,,2013-01-10 12:32:00,
2013-01-10 04:42:00,39.0,37.0,30.09,North,350,0.0,1.0,91,-99.99,,,-99.99,,2013-01-10 12:42:00,
2013-01-10 04:52:00,39.0,36.0,30.10,North,350,0.0,2.0,90,-99.99,,,-99.99,,2013-01-10 12:52:00,
2013-01-10 05:02:00,38.0,36.0,30.08,North,350,0.0,2.0,91,-99.99,,,-99.99,,2013-01-10 13:02:00,
2013-01-10 05:11:00,38.0,36.0,30.08,North,350,0.0,2.0,91,-99.99,,,-99.99,,2013-01-10 13:11:00,
2013-01-10 05:22:00,38.0,36.0,30.08,North,350,0.0,1.0,91,-99.99,,,-99.99,,2013-01-10 13:22:00,
2013-01-10 05:32:00,39.0,37.0,30.08,North,350,0.0,0.0,91,-99.99,,,-99.99,,2013-01-10 13:32:00,
2013-01-10 05:42:00,39.0,37.0,30.08,North,350,0.0,0.0,91,-99.99,,,-99.99,,2013-01-10 13:42:00,
2013-01-10 05:52:00,39.0,37.0,30.09,North,350,0.0,2.0,91,-99.99,,,-99.99,,2013-01-10 13:52:00,
2013-01-10 06:02:00,39.0,37.0,30.10,SW,220,0.0,1.0,91,-99.99,,,-99.99,,2013-01-10 14:02:00,
2013-01-10 06:11:00,39.0,37.0,30.10,SW,220,0.0,1.0,91,-99.99,,,-99.99,,2013-01-10 14:11:00,
2013-01-10 06:22:00,38.0,36.0,30.10,SW,220,0.0,1.0,91,-99.99,,,-99.99,,2013-01-10 14:22:00,
2013-01-10 06:32:00,38.0,35.0,30.09,SW,220,0.0,0.0,90,-99.99,,,-99.99,,2013-01-10 14:32:00,
2013-01-10 06:42:00,38.0,35.0,30.09,SW,220,0.0,0.0,90,-99.99,,,-99.99,,2013-01-10 14:42:00,
2013-01-10 06:52:00,37.0,34.0,30.10,North,353,3.0,3.0,90,-99.99,,,-99.99,,2013-01-10 14:52:00,
2013-01-10 07:03:00,37.0,35.0,30.11,NNW,342,0.0,1.0,91,-99.99,,,-99.99,,2013-01-10 15:03:00,
2013-01-10 07:12:00,37.0,35.0,30.11,NNW,342,0.0,1.0,91,-99.99,,,-99.99,,2013-01-10 15:12:00,
2013-01-10 07:22:00,37.0,35.0,30.10,NNW,342,0.0,1.0,91,-99.99,,,-99.99,,2013-01-10 15:22:00,
2013-01-10 07:32:00,37.0,35.0,30.11,NNW,342,0.0,2.0,91,-99.99,,,-99.99,,2013-01-10 15:32:00,
2013-01-10 07:42:00,37.0,35.0,30.11,NNW,342,0.0,2.0,91,-99.99,,,-99.99,,2013-01-10 15:42:00,
2013-01-10 07:52:00,37.0,35.0,30.11,NNW,342,0.0,0.0,91,-99.99,,,-99.99,,2013-01-10 15:52:00,
2013-01-10 08:02:00,38.0,36.0,30.11,NNW,342,0.0,1.0,92,-99.99,,,-99.99,,2013-01-10 16:02:00,
2013-01-10 08:12:00,38.0,36.0,30.11,NNW,342,0.0,1.0,92,-99.99,,,-99.99,,2013-01-10 16:12:00,
2013-01-10 08:22:00,38.0,36.0,30.12,NNW,342,0.0,2.0,92,-99.99,,,-99.99,,2013-01-10 16:22:00,
2013-01-10 08:32:00,39.0,37.0,30.11,NE,51,0.0,1.0,91,-99.99,,,-99.99,,2013-01-10 16:32:00,
2013-01-10 08:42:00,39.0,37.0,30.11,NE,51,0.0,1.0,91,-99.99,,,-99.99,,2013-01-10 16:42:00,
2013-01-10 08:52:00,40.0,37.0,30.11,NE,40,1.0,3.0,90,-99.99,,,-99.99,,2013-01-10 16:52:00,
2013-01-10 09:02:00,41.0,38.0,30.12,NE,42,0.0,1.0,88,-99.99,,,-99.99,,2013-01-10 17:02:00,
2013-01-10 09:12:00,41.0,38.0,30.12,NE,42,0.0,1.0,88,-99.99,,,-99.99,,2013-01-10 17:12:00,
2013-01-10 09:22:00,42.0,38.0,30.12,NE,42,0.0,2.0,87,-99.99,,,-99.99,,2013-01-10 17:22:00,
2013-01-10 09:33:00,43.0,38.0,30.11,NE,42,2.0,2.0,84,-99.99,,,-99.99,,2013-01-10 17:33:00,
2013-01-10 09:42:00,43.0,38.0,30.11,NE,42,2.0,2.0,84,-99.99,,,-99.99,,2013-01-10 17:42:00,
2013-01-10 09:52:00,44.0,39.0,30.12,NE,45,1.0,3.0,83,-99.99,,,-99.99,,2013-01-10 17:52:00,
2013-01-10 10:03:00,44.0,38.0,30.12,NE,45,0.0,3.0,79,-99.99,,,-99.99,,2013-01-10 18:03:00,
2013-01-10 10:12:00,45.0,39.0,30.12,NE,45,0.0,3.0,79,-99.99,,,-99.99,,2013-01-10 18:12:00,
2013-01-10 10:22:00,45.0,39.0,30.12,NE,45,0.0,3.0,79,-99.99,,,-99.99,,2013-01-10 18:22:00,
2013-01-10 10:32:00,45.0,38.0,30.13,SSW,208,5.0,10.0,77,-99.99,,,-99.99,,2013-01-10 18:32:00,
2013-01-10 10:43:00,46.0,39.0,30.12,SSW,196,1.0,8.0,77,-99.99,,,-99.99,,2013-01-10 18:43:00,
2013-01-10 10:52:00,46.0,39.0,30.12,SSW,196,1.0,8.0,77,-99.99,,,-99.99,,2013-01-10 18:52:00,
2013-01-10 11:02:00,47.0,38.0,30.11,SSW,212,5.0,7.0,72,-99.99,,,-99.99,,2013-01-10 19:02:00,
2013-01-10 11:12:00,47.0,38.0,30.11,SSE,155,1.0,6.0,71,-99.99,,,-99.99,,2013-01-10 19:12:00,
2013-01-10 11:22:00,47.0,38.0,30.11,SSE,155,1.0,6.0,71,-99.99,,,-99.99,,2013-01-10 19:22:00,
2013-01-10 11:32:00,48.0,38.0,30.11,West,272,0.0,6.0,68,-99.99,,,-99.99,,2013-01-10 19:32:00,
2013-01-10 11:42:00,48.0,38.0,30.11,West,272,0.0,6.0,68,-99.99,,,-99.99,,2013-01-10 19:42:00,
2013-01-10 11:52:00,46.0,36.0,30.10,NE,47,0.0,2.0,67,-99.99,,,-99.99,,2013-01-10 19:52:00,
2013-01-10 12:02:00,48.0,38.0,30.10,West,260,0.0,3.0,68,-99.99,,,-99.99,,2013-01-10 20:02:00,
2013-01-10 12:12:00,48.0,37.0,30.09,West,278,1.0,5.0,66,-99.99,,,-99.99,,2013-01-10 20:12:00,
2013-01-10 12:22:00,48.0,37.0,30.09,West,278,1.0,5.0,66,-99.99,,,-99.99,,2013-01-10 20:22:00,
2013-01-10 12:32:00,51.0,38.0,30.08,North,0,1.0,6.0,61,-99.99,,,-99.99,,2013-01-10 20:32:00,
2013-01-10 12:42:00,51.0,38.0,30.08,North,0,1.0,6.0,61,-99.99,,,-99.99,,2013-01-10 20:42:00,
2013-01-10 12:52:00,50.0,37.0,30.08,North,356,3.0,3.0,60,-99.99,,,-99.99,,2013-01-10 20:52:00,
2013-01-10 13:02:00,51.0,38.0,30.07,NE,38,3.0,7.0,61,-99.99,,,-99.99,,2013-01-10 21:02:00,
2013-01-10 13:12:00,51.0,35.0,30.06,WNW,294,1.0,8.0,55,-99.99,,,-99.99,,2013-01-10 21:12:00,
2013-01-10 13:22:00,51.0,35.0,30.06,WNW,294,1.0,8.0,55,-99.99,,,-99.99,,2013-01-10 21:22:00,
2013-01-10 13:32:00,53.0,36.0,30.06,West,261,3.0,11.0,53,-99.99,,,-99.99,,2013-01-10 21:32:00,
2013-01-10 13:42:00,53.0,36.0,30.06,West,261,3.0,11.0,53,-99.99,,,-99.99,,2013-01-10 21:42:00,
2013-01-10 13:52:00,53.0,37.0,30.06,NW,312,3.0,8.0,54,-99.99,,,-99.99,,2013-01-10 21:52:00,
2013-01-10 14:03:00,52.0,35.0,30.06,NNE,25,5.0,8.0,53,-99.99,,,-99.99,,2013-01-10 22:03:00,
2013-01-10 14:12:00,53.0,32.0,30.06,North,10,1.0,11.0,45,-99.99,,,-99.99,,2013-01-10 22:12:00,
2013-01-10 14:22:00,53.0,32.0,30.06,North,10,1.0,11.0,45,-99.99,,,-99.99,,2013-01-10 22:22:00,
2013-01-10 14:32:00,53.0,34.0,30.06,WSW,246,3.0,8.0,49,-99.99,,,-99.99,,2013-01-10 22:32:00,
2013-01-10 14:42:00,53.0,34.0,30.06,WSW,246,3.0,8.0,49,-99.99,,,-99.99,,2013-01-10 22:42:00,
2013-01-10 15:02:00,53.0,33.0,30.06,West,260,4.0,11.0,46,-99.99,,,-99.99,,2013-01-10 23:02:00,
2013-01-10 15:12:00,53.0,32.0,30.06,West,272,4.0,6.0,44,-99.99,,,-99.99,,2013-01-10 23:12:00,
2013-01-10 15:22:00,53.0,32.0,30.06,West,272,4.0,6.0,44,-99.99,,,-99.99,,2013-01-10 23:22:00,
2013-01-10 15:32:00,53.0,34.0,30.07,NE,47,3.0,7.0,48,-99.99,,,-99.99,,2013-01-10 23:32:00,
2013-01-10 15:42:00,53.0,34.0,30.07,NE,47,3.0,7.0,48,-99.99,,,-99.99,,2013-01-10 23:42:00,
2013-01-10 15:52:00,52.0,34.0,30.07,North,1,1.0,7.0,51,-99.99,,,-99.99,,2013-01-10 23:52:00,
2013-01-10 16:02:00,51.0,31.0,30.07,North,3,0.0,6.0,47,-99.99,,,-99.99,,2013-01-11 00:02:00,
2013-01-10 16:12:00,51.0,31.0,30.07,West,272,1.0,6.0,47,-99.99,,,-99.99,,2013-01-11 00:12:00,
2013-01-10 16:32:00,51.0,33.0,30.07,NW,315,0.0,5.0,49,-99.99,,,-99.99,,2013-01-11 00:32:00,
2013-01-10 16:42:00,51.0,33.0,30.07,NW,315,0.0,5.0,49,-99.99,,,-99.99,,2013-01-11 00:42:00,
2013-01-10 16:52:00,51.0,34.0,30.08,West,281,1.0,7.0,53,-99.99,,,-99.99,,2013-01-11 00:52:00,
2013-01-10 17:02:00,49.0,33.0,30.09,NNW,342,0.0,13.0,53,-99.99,,,-99.99,,2013-01-11 01:02:00,
2013-01-10 17:12:00,48.0,32.0,30.09,SSE,165,0.0,3.0,53,-99.99,,,-99.99,,2013-01-11 01:12:00,
2013-01-10 17:22:00,48.0,32.0,30.09,SSE,165,0.0,3.0,53,-99.99,,,-99.99,,2013-01-11 01:22:00,
2013-01-10 17:33:00,48.0,33.0,30.09,NW,323,0.0,2.0,56,-99.99,,,-99.99,,2013-01-11 01:33:00,
2013-01-10 17:42:00,48.0,33.0,30.09,NW,323,0.0,2.0,56,-99.99,,,-99.99,,2013-01-11 01:42:00,
2013-01-10 17:52:00,47.0,32.0,30.10,North,359,0.0,2.0,56,-99.99,,,-99.99,,2013-01-11 01:52:00,
2013-01-10 18:02:00,46.0,32.0,30.10,WSW,248,0.0,3.0,59,-99.99,,,-99.99,,2013-01-11 02:02:00,
2013-01-10 18:12:00,46.0,33.0,30.11,WSW,243,0.0,2.0,60,-99.99,,,-99.99,,2013-01-11 02:12:00,
2013-01-10 18:22:00,46.0,33.0,30.11,WSW,243,0.0,2.0,60,-99.99,,,-99.99,,2013-01-11 02:22:00,
2013-01-10 18:32:00,45.0,33.0,30.12,West,278,0.0,2.0,62,-99.99,,,-99.99,,2013-01-11 02:32:00,
2013-01-10 18:42:00,45.0,33.0,30.12,West,278,0.0,2.0,62,-99.99,,,-99.99,,2013-01-11 02:42:00,
2013-01-10 18:52:00,45.0,33.0,30.13,WSW,237,0.0,2.0,63,-99.99,,,-99.99,,2013-01-11 02:52:00,
2013-01-10 19:02:00,44.0,33.0,30.14,WSW,237,0.0,0.0,65,-99.99,,,-99.99,,2013-01-11 03:02:00,
2013-01-10 19:11:00,44.0,33.0,30.14,WSW,237,0.0,1.0,65,-99.99,,,-99.99,,2013-01-11 03:11:00,
2013-01-10 19:22:00,44.0,33.0,30.14,WSW,237,0.0,1.0,65,-99.99,,,-99.99,,2013-01-11 03:22:00,
2013-01-10 19:32:00,43.0,34.0,30.14,WSW,237,1.0,1.0,69,-99.99,,,-99.99,,2013-01-11 03:32:00,
2013-01-10 19:42:00,43.0,34.0,30.14,WSW,237,1.0,1.0,69,-99.99,,,-99.99,,2013-01-11 03:42:00,
2013-01-10 19:52:00,43.0,34.0,30.15,WSW,237,0.0,1.0,69,-99.99,,,-99.99,,2013-01-11 03:52:00,
2013-01-10 20:02:00,43.0,34.0,30.15,SE,127,0.0,0.0,71,-99.99,,,-99.99,,2013-01-11 04:02:00,
2013-01-10 20:11:00,43.0,34.0,30.15,SE,127,0.0,0.0,71,-99.99,,,-99.99,,2013-01-11 04:11:00,
2013-01-10 20:22:00,42.0,33.0,30.15,East,93,0.0,1.0,71,-99.99,,,-99.99,,2013-01-11 04:22:00,
2013-01-10 20:32:00,42.0,34.0,30.16,NNW,344,0.0,1.0,74,-99.99,,,-99.99,,2013-01-11 04:32:00,
2013-01-10 20:42:00,42.0,34.0,30.16,NNW,344,0.0,1.0,74,-99.99,,,-99.99,,2013-01-11 04:42:00,
2013-01-10 20:52:00,42.0,35.0,30.16,NNW,344,1.0,1.0,75,-99.99,,,-99.99,,2013-01-11 04:52:00,
2013-01-10 21:03:00,42.0,35.0,30.16,NNW,346,1.0,1.0,76,-99.99,,,-99.99,,2013-01-11 05:03:00,
2013-01-10 21:12:00,42.0,35.0,30.16,NNW,346,1.0,1.0,76,-99.99,,,-99.99,,2013-01-11 05:12:00,
2013-01-10 21:22:00,41.0,34.0,30.17,NNW,346,0.0,1.0,76,-99.99,,,-99.99,,2013-01-11 05:22:00,
2013-01-10 21:32:00,41.0,34.0,30.17,NNW,346,1.0,1.0,76,-99.99,,,-99.99,,2013-01-11 05:32:00,
2013-01-10 21:42:00,41.0,34.0,30.17,NNW,346,1.0,1.0,76,-99.99,,,-99.99,,2013-01-11 05:42:00,
2013-01-10 21:52:00,41.0,34.0,30.17,WNW,282,1.0,2.0,77,-99.99,,,-99.99,,2013-01-11 05:52:00,
2013-01-10 22:02:00,41.0,34.0,30.17,NE,54,0.0,2.0,77,-99.99,,,-99.99,,2013-01-11 06:02:00,
2013-01-10 22:11:00,41.0,34.0,30.17,NE,54,0.0,2.0,77,-99.99,,,-99.99,,2013-01-11 06:11:00,
2013-01-10 22:22:00,41.0,34.0,30.18,NE,54,0.0,1.0,77,-99.99,,,-99.99,,2013-01-11 06:22:00,
2013-01-10 22:32:00,41.0,34.0,30.18,NE,54,0.0,1.0,77,-99.99,,,-99.99,,2013-01-11 06:32:00,
2013-01-10 22:42:00,41.0,34.0,30.18,NE,54,0.0,1.0,77,-99.99,,,-99.99,,2013-01-11 06:42:00,
2013-01-10 22:52:00,41.0,34.0,30.19,NE,54,0.0,1.0,76,-99.99,,,-99.99,,2013-01-11 06:52:00,
2013-01-10 23:02:00,41.0,34.0,30.19,NE,54,0.0,1.0,77,-99.99,,,-99.99,,2013-01-11 07:02:00,
2013-01-10 23:11:00,40.0,33.0,30.19,NE,54,0.0,0.0,77,-99.99,,,-99.99,,2013-01-11 07:11:00,
2013-01-10 23:22:00,40.0,33.0,30.19,NE,54,0.0,0.0,77,-99.99,,,-99.99,,2013-01-11 07:22:00,
2013-01-10 23:32:00,40.0,33.0,30.19,NE,54,0.0,2.0,77,-99.99,,,-99.99,,2013-01-11 07:32:00,
2013-01-10 23:42:00,40.0,34.0,30.19,NE,54,0.0,1.0,78,-99.99,,,-99.99,,2013-01-11 07:42:00,
2013-01-10 23:52:00,40.0,34.0,30.19,NE,54,0.0,1.0,78,-99.99,,,-99.99,,2013-01-11 07:52:00,